Time;durP1;ratioP1;P1;durP2;ratioP2;P2;SDS_P1;SDS_P2;PMS_P1;PMS_P2;Temp;Humidity;BMP_temperature;BMP_pressure;BME280_temperature;BME280_humidity;BME280_pressure;Samples;Min_cycle;Max_cycle;Signal;HPM_P1;HPM_P2
2021/03/01 00:02:22;;;;;;;11.27;6.80;;;;;;;;;;5089452;28;20024;-45
2021/03/01 00:04:47;;;;;;;16.67;7.07;;;;;;;;;;5088513;28;20032;-51
2021/03/01 00:07:13;;;;;;;21.33;6.88;;;;;;;;;;5090322;28;20024;-51
2021/03/01 00:09:38;;;;;;;14.52;6.90;;;;;;;;;;5089014;28;20032;-44
2021/03/01 00:12:04;;;;;;;19.80;7.55;;;;;;;;;;5088782;28;20379;-49
2021/03/01 00:14:29;;;;;;;20.92;9.27;;;;;;;;;;5090321;28;20060;-47
2021/03/01 00:16:54;;;;;;;16.00;7.03;;;;;;;;;;5088059;28;20091;-52
2021/03/01 00:19:19;;;;;;;19.60;5.93;;;;;;;;;;5086716;28;20080;-46
2021/03/01 00:21:45;;;;;;;21.33;6.97;;;;;;;;;;5089609;28;20478;-49
2021/03/01 00:24:10;;;;;;;18.02;6.97;;;;;;;;;;5090660;28;20062;-51
2021/03/01 00:26:35;;;;;;;17.98;6.95;;;;;;;;;;5090057;28;20095;-44
2021/03/01 00:29:01;;;;;;;8.35;5.15;;;;;;;;;;5089246;28;20376;-51
2021/03/01 00:31:26;;;;;;;17.10;8.15;;;;;;;;;;5087595;28;20526;-49
2021/03/01 00:33:51;;;;;;;13.73;6.80;;;;;;;;;;5089300;28;20077;-47
2021/03/01 00:36:17;;;;;;;10.38;6.90;;;;;;;;;;5087756;28;20012;-50
2021/03/01 00:38:42;;;;;;;14.82;6.20;;;;;;;;;;5089759;28;20031;-48
2021/03/01 00:41:07;;;;;;;16.55;6.22;;;;;;;;;;5089067;28;20028;-51
2021/03/01 00:43:33;;;;;;;24.10;9.00;;;;;;;;;;5089027;28;20028;-52
2021/03/01 00:45:59;;;;;;;15.20;6.78;;;;;;;;;;5090299;28;20094;-48
2021/03/01 00:48:24;;;;;;;18.58;7.10;;;;;;;;;;5089732;28;20032;-47
2021/03/01 00:50:50;;;;;;;18.70;6.30;;;;;;;;;;5089599;28;20129;-48
2021/03/01 00:53:25;;;;;;;19.98;6.88;;;;;;;;;;5090312;28;20175;-50
2021/03/01 00:55:51;;;;;;;11.85;5.50;;;;;;;;;;5089881;28;20020;-45
2021/03/01 00:58:17;;;;;;;17.08;5.25;;;;;;;;;;5090357;28;20150;-46
2021/03/01 01:00:44;;;;;;;18.88;6.25;;;;;;;;;;5090134;28;20104;-47
2021/03/01 01:03:09;;;;;;;19.67;7.07;;;;;;;;;;5092914;28;20040;-48
2021/03/01 01:05:34;;;;;;;19.13;8.15;;;;;;;;;;5094843;28;20141;-49
2021/03/01 01:08:00;;;;;;;21.50;6.53;;;;;;;;;;5094349;28;20027;-53
2021/03/01 01:10:25;;;;;;;14.90;7.00;;;;;;;;;;5094717;28;20031;-48
2021/03/01 01:12:50;;;;;;;31.50;8.25;;;;;;;;;;5094360;28;20447;-51
2021/03/01 01:15:16;;;;;;;12.70;6.22;;;;;;;;;;5094844;28;20089;-48
2021/03/01 01:17:41;;;;;;;18.63;6.90;;;;;;;;;;5093854;28;20112;-47
2021/03/01 01:20:08;;;;;;;15.13;6.07;;;;;;;;;;5094139;28;20040;-45
2021/03/01 01:22:33;;;;;;;16.40;7.72;;;;;;;;;;5094452;28;20110;-52
2021/03/01 01:24:58;;;;;;;22.92;7.15;;;;;;;;;;5094285;28;20024;-49
2021/03/01 01:27:23;;;;;;;8.80;5.45;;;;;;;;;;5094285;28;20031;-48
2021/03/01 01:29:49;;;;;;;17.75;6.78;;;;;;;;;;5094004;28;20035;-50
2021/03/01 01:32:15;;;;;;;24.52;8.77;;;;;;;;;;5091743;28;20040;-53
2021/03/01 01:34:42;;;;;;;11.90;8.30;;;;;;;;;;5091887;28;20036;-54
2021/03/01 01:37:07;;;;;;;22.00;7.65;;;;;;;;;;5092380;28;20016;-47
2021/03/01 01:39:33;;;;;;;26.55;9.70;;;;;;;;;;5093881;28;20081;-49
2021/03/01 01:41:58;;;;;;;21.08;8.70;;;;;;;;;;5093632;28;20392;-50
2021/03/01 01:44:23;;;;;;;18.00;6.38;;;;;;;;;;5093928;28;20115;-52
2021/03/01 01:46:49;;;;;;;19.90;7.28;;;;;;;;;;5093244;28;20016;-53
2021/03/01 01:49:14;;;;;;;19.10;5.68;;;;;;;;;;5093796;28;20116;-47
2021/03/01 01:51:41;;;;;;;23.10;7.95;;;;;;;;;;5093518;28;20031;-50
2021/03/01 01:54:06;;;;;;;11.77;5.90;;;;;;;;;;5093763;28;20032;-46
2021/03/01 01:56:33;;;;;;;16.15;6.07;;;;;;;;;;5093472;28;20341;-50
2021/03/01 01:58:58;;;;;;;20.73;6.97;;;;;;;;;;5093268;28;20023;-52
2021/03/01 02:01:23;;;;;;;23.92;7.43;;;;;;;;;;5093374;28;20385;-51
2021/03/01 02:04:21;;;;;;;18.85;7.22;;;;;;;;;;5091576;28;20028;-52
2021/03/01 02:06:52;;;;;;;14.10;7.60;;;;;;;;;;5064549;28;20032;-52
2021/03/01 02:09:38;;;;;;;16.85;8.95;;;;;;;;;;5093643;28;20076;-51
2021/03/01 02:12:06;;;;;;;32.50;9.02;;;;;;;;;;5061061;28;20041;-54
2021/03/01 02:14:31;;;;;;;28.42;9.77;;;;;;;;;;5091320;28;20028;-54
2021/03/01 02:16:57;;;;;;;12.95;7.00;;;;;;;;;;5092459;28;20027;-51
2021/03/01 02:19:22;;;;;;;16.05;7.47;;;;;;;;;;5092677;28;20072;-49
2021/03/01 02:21:47;;;;;;;16.75;8.45;;;;;;;;;;5092927;28;20397;-54
2021/03/01 02:24:25;;;;;;;14.15;9.55;;;;;;;;;;5093284;28;20592;-50
2021/03/01 02:26:51;;;;;;;25.95;11.25;;;;;;;;;;5093246;28;20019;-51
2021/03/01 02:29:18;;;;;;;13.48;7.38;;;;;;;;;;5093109;28;20471;-52
2021/03/01 02:31:45;;;;;;;22.45;8.10;;;;;;;;;;5093148;28;20111;-49
2021/03/01 02:34:13;;;;;;;9.38;6.75;;;;;;;;;;5090686;28;20111;-48
2021/03/01 02:36:41;;;;;;;24.20;8.65;;;;;;;;;;5091572;28;20038;-49
2021/03/01 02:39:07;;;;;;;13.05;7.40;;;;;;;;;;5092968;28;20032;-49
2021/03/01 02:41:34;;;;;;;25.77;9.15;;;;;;;;;;5092570;28;20419;-47
2021/03/01 02:43:59;;;;;;;14.43;6.07;;;;;;;;;;5092711;28;20136;-46
2021/03/01 02:46:25;;;;;;;13.95;8.38;;;;;;;;;;5092794;28;20436;-50
2021/03/01 02:48:50;;;;;;;10.00;5.93;;;;;;;;;;5092662;28;20065;-51
2021/03/01 02:51:16;;;;;;;18.15;7.32;;;;;;;;;;5092905;28;20058;-48
2021/03/01 02:53:42;;;;;;;13.02;7.05;;;;;;;;;;5090456;28;20036;-46
2021/03/01 02:56:08;;;;;;;12.43;6.78;;;;;;;;;;5092805;28;20020;-45
2021/03/01 02:58:35;;;;;;;9.15;6.28;;;;;;;;;;5092444;28;20032;-53
2021/03/01 03:01:01;;;;;;;24.88;10.77;;;;;;;;;;5092333;28;20044;-50
2021/03/01 03:03:27;;;;;;;22.30;6.22;;;;;;;;;;5092495;28;20036;-48
2021/03/01 03:05:53;;;;;;;19.98;6.13;;;;;;;;;;5091953;28;20016;-48
2021/03/01 03:08:18;;;;;;;9.25;5.82;;;;;;;;;;5092312;28;20039;-51
2021/03/01 03:10:45;;;;;;;12.50;5.68;;;;;;;;;;5092506;28;20567;-53
2021/03/01 03:13:11;;;;;;;12.25;5.03;;;;;;;;;;5092391;28;20031;-46
2021/03/01 03:15:38;;;;;;;15.82;7.47;;;;;;;;;;5092073;28;20028;-45
2021/03/01 03:18:04;;;;;;;20.98;9.82;;;;;;;;;;5091689;28;20055;-55
2021/03/01 03:20:29;;;;;;;7.53;5.75;;;;;;;;;;5092390;28;20032;-48
2021/03/01 03:22:55;;;;;;;37.28;7.53;;;;;;;;;;5090488;28;20153;-46
2021/03/01 03:25:20;;;;;;;7.93;4.57;;;;;;;;;;5092022;28;20038;-46
2021/03/01 03:27:45;;;;;;;17.25;6.47;;;;;;;;;;5091651;28;20450;-51
2021/03/01 03:30:12;;;;;;;10.02;5.50;;;;;;;;;;5092108;28;20506;-45
2021/03/01 03:32:38;;;;;;;8.02;5.82;;;;;;;;;;5092049;28;20027;-46
2021/03/01 03:35:07;;;;;;;41.25;9.80;;;;;;;;;;5090331;28;20062;-50
2021/03/01 03:37:36;;;;;;;11.90;7.05;;;;;;;;;;5091990;28;20043;-48
2021/03/01 03:40:03;;;;;;;13.35;8.05;;;;;;;;;;5092024;28;20403;-52
2021/03/01 03:42:28;;;;;;;23.92;5.95;;;;;;;;;;5091306;28;20052;-47
2021/03/01 03:44:54;;;;;;;21.48;7.00;;;;;;;;;;5091540;28;20409;-49
2021/03/01 03:47:20;;;;;;;18.33;6.30;;;;;;;;;;5091732;28;20031;-49
2021/03/01 03:49:46;;;;;;;30.95;7.68;;;;;;;;;;5091447;28;20059;-48
2021/03/01 03:52:13;;;;;;;8.70;5.30;;;;;;;;;;5091583;28;20100;-45
2021/03/01 03:54:40;;;;;;;15.75;6.90;;;;;;;;;;5091261;28;20050;-45
2021/03/01 03:57:07;;;;;;;20.08;7.25;;;;;;;;;;5091161;28;20020;-47
2021/03/01 03:59:33;;;;;;;14.57;8.15;;;;;;;;;;5089835;28;20483;-47
2021/03/01 04:01:59;;;;;;;10.48;5.07;;;;;;;;;;5091305;28;20027;-48
2021/03/01 04:04:25;;;;;;;23.15;8.40;;;;;;;;;;5089598;28;20534;-53
2021/03/01 04:06:51;;;;;;;14.63;7.55;;;;;;;;;;5090920;28;20028;-47
2021/03/01 04:09:17;;;;;;;30.48;9.18;;;;;;;;;;5091082;28;20034;-47
2021/03/01 04:11:44;;;;;;;30.25;8.32;;;;;;;;;;5090566;28;20048;-49
2021/03/01 04:14:11;;;;;;;10.73;7.55;;;;;;;;;;5091029;28;20082;-49
2021/03/01 04:16:36;;;;;;;25.10;8.57;;;;;;;;;;5090089;28;20047;-45
2021/03/01 04:19:03;;;;;;;20.30;7.78;;;;;;;;;;5090527;28;20504;-51
2021/03/01 04:21:29;;;;;;;16.35;6.18;;;;;;;;;;5091117;28;20024;-46
2021/03/01 04:23:55;;;;;;;18.65;8.15;;;;;;;;;;5090426;28;20031;-47
2021/03/01 04:26:20;;;;;;;12.18;6.20;;;;;;;;;;5090149;28;20447;-45
2021/03/01 04:28:47;;;;;;;17.60;6.53;;;;;;;;;;5090478;28;20032;-48
2021/03/01 04:31:13;;;;;;;20.83;7.70;;;;;;;;;;5091037;28;20053;-45
2021/03/01 04:33:39;;;;;;;26.48;10.07;;;;;;;;;;5090669;28;20659;-47
2021/03/01 04:36:05;;;;;;;25.15;8.07;;;;;;;;;;5090610;28;20412;-48
2021/03/01 04:38:31;;;;;;;7.55;5.70;;;;;;;;;;5089425;28;20035;-47
2021/03/01 04:40:56;;;;;;;12.57;7.38;;;;;;;;;;5089575;28;20080;-45
2021/03/01 04:43:22;;;;;;;16.30;8.95;;;;;;;;;;5090600;28;20035;-46
2021/03/01 04:45:50;;;;;;;18.25;8.45;;;;;;;;;;5090840;28;20024;-50
2021/03/01 04:48:16;;;;;;;14.43;7.45;;;;;;;;;;5090397;28;20037;-50
2021/03/01 04:50:42;;;;;;;22.10;9.02;;;;;;;;;;5090477;28;20390;-47
2021/03/01 04:53:07;;;;;;;16.58;7.95;;;;;;;;;;5090763;28;20023;-45
2021/03/01 04:55:33;;;;;;;12.82;7.97;;;;;;;;;;5090336;28;20020;-47
2021/03/01 04:57:59;;;;;;;10.70;5.13;;;;;;;;;;5090308;28;20030;-49
2021/03/01 05:00:24;;;;;;;15.98;8.10;;;;;;;;;;5090403;28;20028;-51
2021/03/01 05:02:50;;;;;;;17.58;7.20;;;;;;;;;;5090410;28;20399;-52
2021/03/01 05:05:15;;;;;;;14.70;8.20;;;;;;;;;;5085666;28;20085;-52
2021/03/01 05:07:41;;;;;;;16.33;9.23;;;;;;;;;;5090266;28;20020;-45
2021/03/01 05:10:08;;;;;;;14.52;8.70;;;;;;;;;;5090524;28;20653;-45
2021/03/01 05:12:34;;;;;;;18.33;8.38;;;;;;;;;;5090355;28;20036;-50
2021/03/01 05:14:59;;;;;;;8.48;7.50;;;;;;;;;;5090441;28;20035;-51
2021/03/01 05:17:24;;;;;;;23.05;9.45;;;;;;;;;;5090003;28;20032;-50
2021/03/01 05:19:50;;;;;;;9.88;7.25;;;;;;;;;;5089783;28;20038;-50
2021/03/01 05:22:15;;;;;;;12.77;6.95;;;;;;;;;;5090206;28;20030;-51
2021/03/01 05:24:40;;;;;;;29.55;7.55;;;;;;;;;;5090164;28;20110;-53
2021/03/01 05:27:06;;;;;;;10.98;7.35;;;;;;;;;;5090235;28;20024;-50
2021/03/01 05:29:33;;;;;;;14.80;7.47;;;;;;;;;;5090178;28;20032;-49
2021/03/01 05:31:58;;;;;;;10.57;7.30;;;;;;;;;;5090230;28;20177;-48
2021/03/01 05:34:23;;;;;;;18.17;7.32;;;;;;;;;;5090358;28;20512;-49
2021/03/01 05:36:49;;;;;;;7.47;5.97;;;;;;;;;;5089704;28;20024;-50
2021/03/01 05:39:14;;;;;;;14.93;7.25;;;;;;;;;;5089986;28;20043;-54
2021/03/01 05:41:40;;;;;;;21.88;7.63;;;;;;;;;;5089816;28;20027;-50
2021/03/01 05:44:06;;;;;;;25.00;7.70;;;;;;;;;;5090250;28;20115;-46
2021/03/01 05:46:32;;;;;;;31.83;8.10;;;;;;;;;;5090015;28;20126;-50
2021/03/01 05:48:58;;;;;;;8.88;5.32;;;;;;;;;;5091241;28;20028;-46
2021/03/01 05:51:24;;;;;;;14.68;9.35;;;;;;;;;;5094236;28;20039;-53
2021/03/01 05:53:51;;;;;;;12.82;7.78;;;;;;;;;;5093479;28;20064;-53
2021/03/01 05:56:16;;;;;;;17.08;7.47;;;;;;;;;;5093751;28;20023;-50
2021/03/01 05:58:42;;;;;;;9.45;5.13;;;;;;;;;;5093649;28;20032;-47
2021/03/01 06:01:07;;;;;;;25.00;7.35;;;;;;;;;;5093280;28;20085;-46
2021/03/01 06:03:36;;;;;;;14.13;8.95;;;;;;;;;;5093349;28;20032;-48
2021/03/01 06:06:02;;;;;;;13.70;9.68;;;;;;;;;;5093414;28;20020;-49
2021/03/01 06:08:28;;;;;;;35.42;8.32;;;;;;;;;;5092884;28;20035;-47
2021/03/01 06:11:00;;;;;;;26.05;8.02;;;;;;;;;;5093104;28;20468;-50
2021/03/01 06:13:25;;;;;;;10.50;8.50;;;;;;;;;;5092859;28;20058;-47
2021/03/01 06:15:54;;;;;;;15.00;8.73;;;;;;;;;;5093013;28;20028;-51
2021/03/01 06:18:20;;;;;;;7.10;4.53;;;;;;;;;;5091658;28;20052;-47
2021/03/01 06:20:45;;;;;;;21.15;8.20;;;;;;;;;;5093268;28;20031;-54
2021/03/01 06:23:10;;;;;;;12.80;7.35;;;;;;;;;;5093025;28;20027;-50
2021/03/01 06:25:36;;;;;;;14.50;6.38;;;;;;;;;;5092812;28;20030;-49
2021/03/01 06:28:03;;;;;;;13.38;7.63;;;;;;;;;;5093257;28;20110;-50
2021/03/01 06:30:31;;;;;;;10.25;5.47;;;;;;;;;;5092147;28;20131;-48
2021/03/01 06:33:09;;;;;;;17.90;7.18;;;;;;;;;;5089243;28;20103;-50
2021/03/01 06:35:37;;;;;;;8.27;5.88;;;;;;;;;;5092389;28;20059;-54
2021/03/01 06:38:21;;;;;;;24.77;8.93;;;;;;;;;;5092279;28;20534;-52
2021/03/01 06:41:05;;;;;;;14.05;7.20;;;;;;;;;;5092732;28;20453;-51
2021/03/01 06:43:30;;;;;;;14.00;7.47;;;;;;;;;;5092893;28;20111;-54
2021/03/01 06:46:05;;;;;;;7.80;6.90;;;;;;;;;;5092529;28;20107;-50
2021/03/01 06:48:30;;;;;;;12.27;7.30;;;;;;;;;;5092612;28;20578;-53
2021/03/01 06:50:56;;;;;;;8.32;5.57;;;;;;;;;;5090646;28;20103;-48
2021/03/01 06:53:21;;;;;;;20.05;8.30;;;;;;;;;;5092439;28;20036;-50
2021/03/01 06:56:04;;;;;;;10.48;4.65;;;;;;;;;;5092397;28;20051;-49
2021/03/01 06:58:37;;;;;;;18.35;7.75;;;;;;;;;;5092467;28;20032;-51
2021/03/01 07:01:04;;;;;;;18.52;9.43;;;;;;;;;;5091530;28;20452;-52
2021/03/01 07:03:30;;;;;;;12.25;7.20;;;;;;;;;;5092373;28;20057;-53
2021/03/01 07:05:56;;;;;;;14.50;7.03;;;;;;;;;;5092045;28;20107;-49
2021/03/01 07:08:40;;;;;;;20.60;6.88;;;;;;;;;;5092196;28;20036;-48
2021/03/01 07:11:24;;;;;;;16.58;7.90;;;;;;;;;;5092054;28;20062;-50
2021/03/01 07:13:51;;;;;;;24.55;7.10;;;;;;;;;;5091924;28;20028;-48
2021/03/01 07:16:16;;;;;;;24.15;8.45;;;;;;;;;;5092419;28;20376;-53
2021/03/01 07:18:42;;;;;;;11.38;5.25;;;;;;;;;;5090204;28;20138;-52
2021/03/01 07:21:09;;;;;;;22.25;9.43;;;;;;;;;;5091676;28;20031;-46
2021/03/01 07:23:35;;;;;;;18.05;6.60;;;;;;;;;;5090432;28;20040;-51
2021/03/01 07:26:00;;;;;;;23.73;9.75;;;;;;;;;;5091502;28;20461;-50
2021/03/01 07:28:27;;;;;;;31.50;9.27;;;;;;;;;;5091414;28;20111;-51
2021/03/01 07:30:52;;;;;;;12.60;8.10;;;;;;;;;;5090483;28;20024;-47
2021/03/01 07:33:17;;;;;;;9.55;7.13;;;;;;;;;;5091795;28;20372;-51
2021/03/01 07:35:43;;;;;;;11.32;7.75;;;;;;;;;;5091560;28;20457;-49
2021/03/01 07:38:09;;;;;;;23.08;11.52;;;;;;;;;;5091376;28;20471;-49
2021/03/01 07:40:34;;;;;;;19.45;7.25;;;;;;;;;;5091239;28;20028;-55
2021/03/01 07:43:01;;;;;;;26.98;9.30;;;;;;;;;;5091690;28;20444;-50
2021/03/01 07:45:26;;;;;;;10.35;6.38;;;;;;;;;;5091215;28;20061;-47
2021/03/01 07:47:51;;;;;;;13.43;8.30;;;;;;;;;;5090930;28;20035;-52
2021/03/01 07:50:33;;;;;;;22.67;8.75;;;;;;;;;;5091716;28;20028;-54
2021/03/01 07:52:59;;;;;;;22.63;7.65;;;;;;;;;;5079832;28;20032;-52
2021/03/01 07:55:24;;;;;;;12.85;7.47;;;;;;;;;;5084579;28;20039;-61
2021/03/01 07:58:07;;;;;;;22.33;8.07;;;;;;;;;;5086336;28;20360;-59
2021/03/01 08:00:34;;;;;;;23.63;9.95;;;;;;;;;;5085972;28;20059;-61
2021/03/01 08:03:00;;;;;;;11.10;5.28;;;;;;;;;;5085561;28;20481;-58
2021/03/01 08:05:26;;;;;;;16.75;8.85;;;;;;;;;;5086491;28;20028;-59
2021/03/01 08:07:51;;;;;;;10.38;8.30;;;;;;;;;;5086339;28;20089;-61
2021/03/01 08:10:17;;;;;;;15.93;8.07;;;;;;;;;;5086074;28;20030;-65
2021/03/01 08:12:45;;;;;;;19.02;8.65;;;;;;;;;;5086760;28;20056;-59
2021/03/01 08:15:11;;;;;;;18.92;7.53;;;;;;;;;;5087078;28;20028;-55
2021/03/01 08:17:39;;;;;;;16.60;8.90;;;;;;;;;;5087390;28;20032;-60
2021/03/01 08:20:04;;;;;;;8.93;8.05;;;;;;;;;;5084862;28;20020;-59
2021/03/01 08:22:29;;;;;;;22.73;8.85;;;;;;;;;;5085498;28;20057;-57
2021/03/01 08:24:55;;;;;;;25.30;8.02;;;;;;;;;;5086140;28;20044;-59
2021/03/01 08:27:26;;;;;;;14.10;11.15;;;;;;;;;;5087273;28;20088;-58
2021/03/01 08:30:11;;;;;;;19.65;8.25;;;;;;;;;;5087492;28;20089;-58
2021/03/01 08:32:36;;;;;;;14.70;7.75;;;;;;;;;;5083554;28;20077;-57
2021/03/01 08:35:20;;;;;;;17.98;11.18;;;;;;;;;;5087782;28;20035;-58
2021/03/01 08:37:46;;;;;;;8.73;7.22;;;;;;;;;;5087330;28;20461;-60
2021/03/01 08:40:18;;;;;;;16.58;11.48;;;;;;;;;;5087722;28;20127;-59
2021/03/01 08:42:56;;;;;;;20.83;9.95;;;;;;;;;;5087178;28;20054;-58
2021/03/01 08:45:23;;;;;;;19.35;10.13;;;;;;;;;;5086314;28;20036;-57
2021/03/01 08:47:53;;;;;;;17.02;10.57;;;;;;;;;;5087156;28;20107;-61
2021/03/01 08:50:26;;;;;;;15.43;9.70;;;;;;;;;;5087116;28;20028;-59
2021/03/01 08:52:51;;;;;;;21.45;8.93;;;;;;;;;;5086837;28;20024;-58
2021/03/01 08:55:18;;;;;;;10.50;8.55;;;;;;;;;;5086565;28;20070;-59
2021/03/01 08:57:58;;;;;;;19.80;9.63;;;;;;;;;;5086316;28;20460;-56
2021/03/01 09:00:24;;;;;;;8.50;6.30;;;;;;;;;;5087105;28;20032;-59
2021/03/01 09:02:50;;;;;;;16.02;10.93;;;;;;;;;;5086981;28;20094;-57
2021/03/01 09:05:18;;;;;;;18.02;10.45;;;;;;;;;;5082706;28;20040;-61
2021/03/01 09:07:44;;;;;;;19.15;9.52;;;;;;;;;;5087184;28;20419;-56
2021/03/01 09:10:09;;;;;;;15.25;11.05;;;;;;;;;;5085772;28;20035;-57
2021/03/01 09:12:35;;;;;;;13.55;9.38;;;;;;;;;;5085887;28;20028;-55
2021/03/01 09:15:01;;;;;;;19.13;10.00;;;;;;;;;;5085922;28;20384;-59
2021/03/01 09:17:26;;;;;;;17.63;5.70;;;;;;;;;;5086516;28;20028;-55
2021/03/01 09:19:54;;;;;;;27.55;10.98;;;;;;;;;;5087253;28;20126;-57
2021/03/01 09:22:20;;;;;;;15.70;9.32;;;;;;;;;;5087068;28;20446;-57
2021/03/01 09:24:45;;;;;;;30.75;10.80;;;;;;;;;;5088210;28;20496;-58
2021/03/01 09:27:10;;;;;;;20.77;9.25;;;;;;;;;;5090633;28;20028;-57
2021/03/01 09:29:35;;;;;;;21.67;8.30;;;;;;;;;;5090851;28;20372;-53
2021/03/01 09:32:01;;;;;;;26.70;9.25;;;;;;;;;;5089703;28;20024;-58
2021/03/01 09:34:27;;;;;;;22.40;7.55;;;;;;;;;;5094511;28;20043;-50
2021/03/01 09:36:52;;;;;;;11.48;8.60;;;;;;;;;;5093546;28;20020;-54
2021/03/01 09:39:19;;;;;;;23.75;10.20;;;;;;;;;;5091822;28;20739;-55
2021/03/01 09:41:45;;;;;;;26.77;10.80;;;;;;;;;;5091888;28;20035;-58
2021/03/01 09:44:11;;;;;;;26.75;9.35;;;;;;;;;;5089442;28;20104;-58
2021/03/01 09:46:36;;;;;;;16.98;7.60;;;;;;;;;;5090266;28;20055;-55
2021/03/01 09:49:03;;;;;;;24.42;8.77;;;;;;;;;;5090957;28;20431;-58
2021/03/01 09:51:29;;;;;;;27.83;8.40;;;;;;;;;;5091693;28;20562;-56
2021/03/01 09:53:59;;;;;;;22.02;8.00;;;;;;;;;;5091313;28;20103;-56
2021/03/01 09:56:37;;;;;;;14.43;7.50;;;;;;;;;;5091500;28;20028;-55
2021/03/01 09:59:02;;;;;;;26.05;8.73;;;;;;;;;;5093109;28;20488;-57
2021/03/01 10:01:28;;;;;;;27.23;9.90;;;;;;;;;;5092907;28;20066;-52
2021/03/01 10:03:53;;;;;;;14.52;8.32;;;;;;;;;;5092437;28;20416;-52
2021/03/01 10:06:45;;;;;;;13.05;7.38;;;;;;;;;;5092955;28;20111;-57
2021/03/01 10:09:11;;;;;;;21.67;10.20;;;;;;;;;;5088803;28;20036;-54
2021/03/01 10:11:36;;;;;;;17.25;12.10;;;;;;;;;;5092487;28;20047;-54
2021/03/01 10:14:09;;;;;;;22.88;9.20;;;;;;;;;;5092010;28;20024;-59
2021/03/01 10:16:35;;;;;;;25.23;9.38;;;;;;;;;;5092406;28;20103;-55
2021/03/01 10:19:15;;;;;;;12.10;7.60;;;;;;;;;;5092566;28;20055;-55
2021/03/01 10:21:41;;;;;;;13.32;7.30;;;;;;;;;;5092092;28;20444;-52
2021/03/01 10:24:07;;;;;;;15.68;8.07;;;;;;;;;;5092212;28;20031;-57
2021/03/01 10:26:33;;;;;;;21.98;8.68;;;;;;;;;;5092514;28;20024;-52
2021/03/01 10:29:00;;;;;;;15.93;8.25;;;;;;;;;;5092274;28;20074;-57
2021/03/01 10:31:26;;;;;;;49.55;11.82;;;;;;;;;;5092312;28;20016;-55
2021/03/01 10:34:03;;;;;;;23.25;9.90;;;;;;;;;;5091466;28;20032;-56
2021/03/01 10:36:33;;;;;;;14.35;8.40;;;;;;;;;;5091628;28;20502;-56
2021/03/01 10:39:18;;;;;;;19.17;9.10;;;;;;;;;;5092634;28;20063;-56
2021/03/01 10:41:47;;;;;;;21.63;11.45;;;;;;;;;;5092262;28;20076;-57
2021/03/01 10:44:13;;;;;;;25.58;10.65;;;;;;;;;;5092328;28;20050;-55
2021/03/01 10:46:48;;;;;;;7.30;6.32;;;;;;;;;;5091808;28;20012;-56
2021/03/01 10:49:14;;;;;;;19.05;8.15;;;;;;;;;;5091998;28;20100;-57
2021/03/01 10:51:39;;;;;;;19.35;9.15;;;;;;;;;;5092194;28;20028;-56
2021/03/01 10:54:05;;;;;;;15.48;8.18;;;;;;;;;;5090352;28;20457;-60
2021/03/01 10:56:30;;;;;;;21.90;10.02;;;;;;;;;;5092153;28;20034;-61
2021/03/01 10:58:55;;;;;;;20.48;8.95;;;;;;;;;;5091779;28;20603;-54
2021/03/01 11:01:21;;;;;;;27.77;9.95;;;;;;;;;;5091653;28;20028;-59
2021/03/01 11:03:46;;;;;;;15.73;8.68;;;;;;;;;;5090848;28;20544;-57
2021/03/01 11:06:11;;;;;;;14.50;8.23;;;;;;;;;;5090512;28;20024;-57
2021/03/01 11:08:37;;;;;;;28.67;8.95;;;;;;;;;;5090869;28;20075;-57
2021/03/01 11:11:02;;;;;;;21.35;10.77;;;;;;;;;;5091171;28;20107;-58
2021/03/01 11:13:27;;;;;;;10.65;7.53;;;;;;;;;;5090978;28;20111;-55
2021/03/01 11:15:53;;;;;;;13.63;7.28;;;;;;;;;;5091162;28;20186;-58
2021/03/01 11:18:18;;;;;;;19.70;8.15;;;;;;;;;;5089244;28;20131;-59
2021/03/01 11:20:43;;;;;;;21.67;8.20;;;;;;;;;;5090715;28;20110;-57
2021/03/01 11:23:09;;;;;;;19.95;8.10;;;;;;;;;;5090583;28;20028;-57
2021/03/01 11:25:34;;;;;;;19.80;7.97;;;;;;;;;;5090956;28;20111;-57
2021/03/01 11:28:00;;;;;;;10.63;7.85;;;;;;;;;;5091106;28;20024;-58
2021/03/01 11:30:25;;;;;;;19.75;7.93;;;;;;;;;;5090227;28;20065;-61
2021/03/01 11:32:51;;;;;;;23.30;8.10;;;;;;;;;;5089280;28;20039;-62
2021/03/01 11:35:16;;;;;;;19.92;8.70;;;;;;;;;;5090651;28;20043;-56
2021/03/01 11:37:41;;;;;;;9.30;7.45;;;;;;;;;;5091277;28;20039;-55
2021/03/01 11:40:07;;;;;;;19.77;8.45;;;;;;;;;;5090833;28;20039;-56
2021/03/01 11:42:32;;;;;;;18.00;7.85;;;;;;;;;;5090424;28;20488;-60
2021/03/01 11:44:58;;;;;;;27.60;7.65;;;;;;;;;;5089261;28;20165;-57
2021/03/01 11:47:23;;;;;;;25.10;9.32;;;;;;;;;;5089712;28;20484;-59
2021/03/01 11:49:49;;;;;;;11.98;6.40;;;;;;;;;;5089824;28;20362;-61
2021/03/01 11:52:14;;;;;;;22.55;9.07;;;;;;;;;;5089188;28;20123;-58
2021/03/01 11:54:39;;;;;;;15.52;7.60;;;;;;;;;;5090117;28;20032;-58
2021/03/01 11:57:04;;;;;;;14.25;11.18;;;;;;;;;;5089011;28;20016;-59
2021/03/01 11:59:30;;;;;;;20.05;9.75;;;;;;;;;;5090465;28;20059;-61
2021/03/01 12:01:55;;;;;;;25.80;9.63;;;;;;;;;;5088922;28;20460;-59
2021/03/01 12:04:20;;;;;;;19.30;7.10;;;;;;;;;;5084578;28;20039;-59
2021/03/01 12:06:47;;;;;;;21.48;7.47;;;;;;;;;;5090029;28;20453;-60
2021/03/01 12:09:12;;;;;;;15.15;8.27;;;;;;;;;;5089294;28;20176;-61
2021/03/01 12:11:38;;;;;;;21.88;10.20;;;;;;;;;;5085082;28;20535;-59
2021/03/01 12:14:03;;;;;;;21.30;9.52;;;;;;;;;;5090110;28;20753;-61
2021/03/01 12:16:28;;;;;;;11.80;7.70;;;;;;;;;;5089319;28;20031;-60
2021/03/01 12:18:54;;;;;;;53.53;9.82;;;;;;;;;;5089358;28;20063;-62
2021/03/01 12:21:19;;;;;;;17.70;8.75;;;;;;;;;;5089038;28;20383;-62
2021/03/01 12:23:44;;;;;;;22.30;9.93;;;;;;;;;;5088423;28;20044;-56
2021/03/01 12:26:10;;;;;;;35.33;10.10;;;;;;;;;;5087285;28;20036;-57
2021/03/01 12:28:36;;;;;;;10.27;7.75;;;;;;;;;;5088606;28;20036;-58
2021/03/01 12:31:01;;;;;;;9.50;7.38;;;;;;;;;;5089828;28;20440;-56
2021/03/01 12:33:26;;;;;;;26.77;7.82;;;;;;;;;;5090252;28;20031;-58
2021/03/01 12:35:52;;;;;;;15.45;9.60;;;;;;;;;;5090033;28;20306;-60
2021/03/01 12:38:17;;;;;;;17.77;10.35;;;;;;;;;;5089344;28;20047;-60
2021/03/01 12:40:42;;;;;;;16.45;10.40;;;;;;;;;;5089493;28;20087;-59
2021/03/01 12:43:08;;;;;;;16.95;8.60;;;;;;;;;;5089226;28;20119;-55
2021/03/01 12:45:33;;;;;;;15.63;8.60;;;;;;;;;;5087558;28;20024;-57
2021/03/01 12:47:59;;;;;;;16.25;8.85;;;;;;;;;;5088541;28;20379;-56
2021/03/01 12:50:25;;;;;;;15.18;7.80;;;;;;;;;;5089288;28;20020;-59
2021/03/01 12:52:50;;;;;;;26.67;9.20;;;;;;;;;;5086984;28;20031;-58
2021/03/01 12:55:16;;;;;;;25.83;9.13;;;;;;;;;;5086364;28;20032;-59
2021/03/01 12:57:41;;;;;;;13.48;9.80;;;;;;;;;;5087810;28;20020;-57
2021/03/01 13:00:10;;;;;;;24.10;8.93;;;;;;;;;;5087310;28;20040;-61
2021/03/01 13:02:35;;;;;;;22.77;10.45;;;;;;;;;;5088547;28;20019;-58
2021/03/01 13:05:00;;;;;;;29.83;11.02;;;;;;;;;;5089217;28;20040;-60
2021/03/01 13:07:26;;;;;;;21.90;11.45;;;;;;;;;;5089158;28;20099;-58
2021/03/01 13:09:51;;;;;;;17.52;11.15;;;;;;;;;;5089164;28;20439;-60
2021/03/01 13:12:17;;;;;;;11.68;7.80;;;;;;;;;;5089006;28;20438;-58
2021/03/01 13:14:42;;;;;;;21.35;8.88;;;;;;;;;;5087305;28;20518;-64
2021/03/01 13:17:08;;;;;;;18.17;8.52;;;;;;;;;;5088608;28;20032;-58
2021/03/01 13:19:34;;;;;;;21.00;10.75;;;;;;;;;;5087733;28;20064;-58
2021/03/01 13:21:59;;;;;;;17.40;9.30;;;;;;;;;;5087375;28;20032;-59
2021/03/01 13:24:24;;;;;;;16.98;9.65;;;;;;;;;;5085753;28;20043;-59
2021/03/01 13:26:50;;;;;;;13.82;7.70;;;;;;;;;;5085302;28;20024;-60
2021/03/01 13:29:15;;;;;;;14.90;9.27;;;;;;;;;;5087657;28;20063;-61
2021/03/01 13:31:40;;;;;;;18.13;7.65;;;;;;;;;;5087704;28;20161;-60
2021/03/01 13:34:05;;;;;;;15.40;8.35;;;;;;;;;;5087738;28;20024;-60
2021/03/01 13:36:31;;;;;;;28.83;10.15;;;;;;;;;;5088984;28;20024;-61
2021/03/01 13:38:56;;;;;;;22.05;10.57;;;;;;;;;;5084775;28;20047;-61
2021/03/01 13:41:21;;;;;;;14.63;8.07;;;;;;;;;;5088557;28;20031;-60
2021/03/01 13:43:47;;;;;;;16.90;8.13;;;;;;;;;;5088794;28;20043;-60
2021/03/01 13:46:12;;;;;;;19.10;10.48;;;;;;;;;;5088889;28;20676;-60
2021/03/01 13:48:37;;;;;;;14.45;11.30;;;;;;;;;;5088769;28;20036;-61
2021/03/01 13:51:02;;;;;;;13.23;10.32;;;;;;;;;;5088447;28;20013;-60
2021/03/01 13:53:28;;;;;;;17.52;8.85;;;;;;;;;;5089007;28;20032;-59
2021/03/01 13:55:53;;;;;;;38.35;14.48;;;;;;;;;;5086831;28;20512;-59
2021/03/01 13:58:19;;;;;;;20.90;9.85;;;;;;;;;;5084465;28;20103;-62
2021/03/01 14:00:44;;;;;;;23.73;12.68;;;;;;;;;;5085107;28;20089;-61
2021/03/01 14:03:09;;;;;;;15.27;11.07;;;;;;;;;;5084923;28;20024;-62
2021/03/01 14:05:35;;;;;;;15.52;11.05;;;;;;;;;;5084780;28;20392;-60
2021/03/01 14:08:00;;;;;;;24.58;10.75;;;;;;;;;;5085056;28;20027;-65
2021/03/01 14:10:26;;;;;;;25.85;10.15;;;;;;;;;;5087368;28;20358;-64
2021/03/01 14:12:51;;;;;;;32.40;11.27;;;;;;;;;;5091033;28;20023;-65
2021/03/01 14:15:17;;;;;;;25.50;8.63;;;;;;;;;;5089948;28;20032;-61
2021/03/01 14:17:42;;;;;;;14.93;10.05;;;;;;;;;;5090561;28;20016;-60
2021/03/01 14:20:08;;;;;;;12.43;9.00;;;;;;;;;;5089684;28;20448;-60
2021/03/01 14:22:34;;;;;;;15.07;11.00;;;;;;;;;;5091813;28;20027;-61
2021/03/01 14:24:59;;;;;;;19.30;9.27;;;;;;;;;;5091501;28;20067;-60
2021/03/01 14:27:25;;;;;;;17.23;9.60;;;;;;;;;;5091492;28;20032;-61